»·PEaware :: TEXAN77 KGEG-KSEA

TEXAN77 :: KGEG-KSEA

FLIGHT INFORMATION

Flight Status: Arrived
Operator: Unknown
More flights by this operator :: More flights under this callsign
Pilot: Indie I. (23379)
Aircraft: BEECH AIRCRAFT T-6A TEXAN
(TEX2)
More flights by this aircraft type
Origin: KGEG Spokane Intl
United States
Destination: KSEA Seattle-Tacoma Intl
United States
More flights between these airports :: More routes between these airports
Route: GEG GLASR1
File this flight plan on PilotEdge
Remarks:
Altitude:
(Current/Filed)
21,000ft
Speed:
(Current/Filed)
200kts
Departed: 10-Feb-21 12:49 PM
Arrived: 10-Feb-21 01:46 PM
Distance/Time
Traveled:
194nm/0:57
Distance/Time
To Go:
Arrived

Flight Plot

Page will automatically refresh every two minutes.

Flight plan parsing failed; only flown route is shown


Map Options




Map Legend


Flown Route
Filed Route
Departure Airport
Arrival Airport
Navaid (VOR, NDB)
Fix

Horizontal Profiles

Position Reports

Time Latitude Longitude Heading Altitude Ground
Speed
10-Feb-21 12:33 47.614638 -117.534244 45 2388ft 0kts
10-Feb-21 12:34 47.614645 -117.534233 45 2388ft 0kts
10-Feb-21 12:35 47.614653 -117.534221 45 2388ft 0kts
10-Feb-21 12:36 47.614660 -117.534210 45 2388ft 0kts
10-Feb-21 12:37 47.614667 -117.534199 45 2388ft 0kts
10-Feb-21 12:38 47.614675 -117.534188 45 2388ft 0kts
10-Feb-21 12:39 47.614682 -117.534176 45 2388ft 0kts
10-Feb-21 12:40 47.614690 -117.534165 45 2388ft 0kts
10-Feb-21 12:41 47.614698 -117.534153 45 2388ft 0kts
10-Feb-21 12:42 47.614705 -117.534142 45 2388ft 0kts
10-Feb-21 12:43 47.615282 -117.536918 269 2388ft 3kts
10-Feb-21 12:44 47.611361 -117.544662 228 2388ft 24kts
10-Feb-21 12:46 47.609296 -117.548705 320 2388ft 15kts
10-Feb-21 12:47 47.609537 -117.549016 318 2388ft 0kts
10-Feb-21 12:48 47.610587 -117.549333 47 2388ft 14kts
10-Feb-21 12:49 47.633944 -117.514406 45 3328ft 178kts
10-Feb-21 12:50 47.669294 -117.469421 38 6004ft 180kts
10-Feb-21 12:51 47.688679 -117.405410 122 8032ft 219kts
10-Feb-21 12:52 47.641879 -117.431186 235 10560ft 207kts
10-Feb-21 12:53 47.610568 -117.502438 238 13060ft 202kts
10-Feb-21 12:54 47.580916 -117.578174 240 15002ft 215kts
10-Feb-21 12:55 47.564355 -117.663453 263 17009ft 212kts
10-Feb-21 12:56 47.571632 -117.747440 279 19289ft 194kts
10-Feb-21 12:57 47.579523 -117.826325 277 20900ft 210kts
10-Feb-21 12:58 47.589853 -117.923621 279 21276ft 257kts
10-Feb-21 12:58 47.599202 -118.016058 278 21288ft 283kts
10-Feb-21 13:00 47.613013 -118.157210 278 20958ft 301kts
10-Feb-21 13:01 47.624478 -118.279050 277 21087ft 299kts
10-Feb-21 13:01 47.633879 -118.381485 277 21067ft 301kts
10-Feb-21 13:03 47.636075 -118.405038 278 21128ft 299kts
10-Feb-21 13:03 47.636075 -118.405038 278 21128ft 299kts
10-Feb-21 13:04 47.636075 -118.405038 278 21128ft 299kts
10-Feb-21 13:06 47.649121 -118.538393 276 21140ft 300kts
10-Feb-21 13:06 47.658738 -118.641756 279 21036ft 302kts
10-Feb-21 13:07 47.671975 -118.765136 278 20940ft 303kts
10-Feb-21 13:08 47.685248 -118.888094 279 20960ft 301kts
10-Feb-21 13:09 47.697814 -119.010595 278 20980ft 301kts
10-Feb-21 13:10 47.710888 -119.133104 278 21030ft 301kts
10-Feb-21 13:11 47.718985 -119.256432 274 21021ft 302kts
10-Feb-21 13:12 47.726387 -119.380160 274 21059ft 301kts
10-Feb-21 13:13 47.732747 -119.504674 274 20939ft 303kts
10-Feb-21 13:14 47.739822 -119.628534 275 20991ft 302kts
10-Feb-21 13:15 47.746790 -119.752870 274 21000ft 301kts
10-Feb-21 13:16 47.753437 -119.876844 274 21031ft 300kts
10-Feb-21 13:17 47.761836 -120.000549 275 21054ft 300kts
10-Feb-21 13:18 47.770528 -120.126881 276 20013ft 316kts
10-Feb-21 13:19 47.781179 -120.259552 275 18584ft 333kts
10-Feb-21 13:20 47.790875 -120.396682 276 17255ft 327kts
10-Feb-21 13:21 47.801814 -120.530574 276 15994ft 328kts
10-Feb-21 13:22 47.810356 -120.665996 277 13973ft 315kts
10-Feb-21 13:23 47.820377 -120.784173 274 11576ft 263kts
10-Feb-21 13:24 47.829107 -120.891510 277 10025ft 270kts
10-Feb-21 13:25 47.838408 -121.005276 275 10085ft 291kts
10-Feb-21 13:26 47.848579 -121.123550 277 10161ft 282kts
10-Feb-21 13:27 47.858365 -121.241371 277 9986ft 291kts
10-Feb-21 13:28 47.867988 -121.360053 276 10014ft 288kts
10-Feb-21 13:29 47.877986 -121.475842 276 10031ft 263kts
10-Feb-21 13:30 47.885307 -121.581619 274 9891ft 256kts
10-Feb-21 13:31 47.892821 -121.689239 276 8973ft 261kts
10-Feb-21 13:32 47.884511 -121.789564 224 6718ft 251kts
10-Feb-21 13:33 47.838180 -121.858678 224 7057ft 227kts
10-Feb-21 13:34 47.811453 -121.944457 254 5175ft 226kts
10-Feb-21 13:35 47.795797 -122.033987 255 4960ft 217kts
10-Feb-21 13:36 47.780883 -122.119849 255 5051ft 214kts
10-Feb-21 13:37 47.764988 -122.206037 254 4048ft 211kts
10-Feb-21 13:38 47.724597 -122.260775 204 4073ft 203kts
10-Feb-21 13:39 47.674536 -122.295463 206 3997ft 194kts
10-Feb-21 13:40 47.622369 -122.307029 180 3710ft 193kts
10-Feb-21 13:41 47.572278 -122.306730 180 2697ft 150kts
10-Feb-21 13:42 47.535924 -122.307419 181 1880ft 122kts
10-Feb-21 13:43 47.502747 -122.307124 180 1234ft 116kts
10-Feb-21 13:44 47.471105 -122.307572 180 628ft 110kts
10-Feb-21 13:45 47.453504 -122.307849 180 436ft 35kts
10-Feb-21 13:46 47.452049 -122.306119 176 436ft 18kts
10-Feb-21 13:47 47.450333 -122.304791 129 436ft 0kts
10-Feb-21 13:48 47.450332 -122.304790 129 436ft 0kts

Navigation Log

Ident Type
Flight plan parsing failed, navigation log unavailable